createdAt,value
2017-12-14T00:01:24.659Z,78.90
2017-12-14T00:06:27.194Z,79.20
2017-12-14T00:11:30.498Z,79.10
2017-12-14T00:16:33.807Z,78.90
2017-12-14T00:21:36.415Z,78.90
2017-12-14T00:26:39.724Z,79.20
2017-12-14T00:31:42.250Z,79.20
2017-12-14T00:36:44.774Z,80.10
2017-12-14T00:41:47.307Z,79.00
2017-12-14T00:46:49.839Z,79.20
2017-12-14T00:51:52.375Z,79.20
2017-12-14T00:56:54.958Z,79.70
2017-12-14T01:01:57.486Z,80.90
2017-12-14T01:07:00.787Z,81.60
2017-12-14T01:12:03.370Z,81.60
2017-12-14T01:17:05.966Z,81.50
2017-12-14T01:22:08.570Z,82.40
2017-12-14T01:27:11.178Z,81.90
2017-12-14T01:32:13.769Z,82.40
2017-12-14T01:37:17.081Z,82.90
2017-12-14T01:42:19.626Z,81.90
2017-12-14T01:47:22.158Z,83.30
2017-12-14T01:52:24.778Z,82.70
2017-12-14T01:57:27.382Z,82.70
2017-12-14T02:02:30.503Z,82.00
2017-12-14T02:07:33.097Z,81.90
2017-12-14T02:12:35.622Z,81.60
2017-12-14T02:17:38.162Z,81.90
2017-12-14T02:22:40.695Z,81.80
2017-12-14T02:27:43.289Z,81.50
2017-12-14T02:32:45.799Z,81.40
2017-12-14T02:37:48.341Z,80.90
2017-12-14T02:42:50.876Z,81.10
2017-12-14T02:47:53.415Z,81.30
2017-12-14T02:52:55.980Z,81.50
2017-12-14T02:57:58.580Z,81.80
2017-12-14T03:03:01.102Z,81.60
2017-12-14T03:08:03.634Z,81.70
2017-12-14T03:13:06.182Z,81.80
2017-12-14T03:18:08.718Z,81.60
2017-12-14T03:23:11.259Z,81.50
2017-12-14T03:28:13.790Z,81.40
2017-12-14T03:33:16.324Z,81.20
2017-12-14T03:38:18.923Z,81.00
2017-12-14T03:43:21.447Z,81.40
2017-12-14T03:48:23.979Z,81.30
2017-12-14T03:53:26.619Z,81.20
2017-12-14T03:58:29.262Z,81.10
2017-12-14T04:03:31.793Z,81.10
2017-12-14T04:08:34.318Z,81.40
2017-12-14T04:13:36.855Z,81.10
2017-12-14T04:18:39.370Z,81.30
2017-12-14T04:23:41.910Z,82.50
2017-12-14T04:28:45.210Z,87.50
2017-12-14T04:33:47.747Z,87.50
2017-12-14T04:38:50.287Z,88.00
2017-12-14T04:43:52.822Z,87.90
2017-12-14T04:48:56.122Z,88.00
2017-12-14T04:53:58.654Z,88.00
2017-12-14T04:59:01.461Z,88.20
2017-12-14T05:04:04.003Z,88.20
2017-12-14T05:09:06.530Z,88.50
2017-12-14T05:14:10.996Z,88.30
2017-12-14T05:19:13.561Z,88.90
2017-12-14T05:24:16.095Z,88.00
2017-12-14T05:29:18.622Z,88.60
2017-12-14T05:34:21.155Z,88.70
2017-12-14T05:39:23.687Z,89.00
2017-12-14T05:44:26.970Z,88.40
2017-12-14T05:49:30.272Z,87.60
2017-12-14T05:54:32.803Z,87.60
2017-12-14T05:59:36.108Z,88.10
2017-12-14T06:04:38.643Z,88.10
2017-12-14T06:09:41.183Z,89.20
2017-12-14T06:14:43.711Z,88.50
2017-12-14T06:19:47.009Z,88.60
2017-12-14T06:24:49.527Z,89.30
2017-12-14T06:29:52.071Z,88.80
2017-12-14T06:34:55.515Z,86.80
2017-12-14T06:39:58.407Z,84.20
2017-12-14T06:45:03.972Z,82.90
2017-12-14T06:50:06.824Z,82.20
2017-12-14T06:55:10.974Z,81.30
2017-12-14T07:00:14.495Z,80.60
2017-12-14T07:05:18.180Z,80.20
2017-12-14T07:10:21.296Z,79.10
2017-12-14T07:15:24.099Z,78.80
2017-12-14T07:20:28.720Z,79.00
2017-12-14T07:25:33.505Z,78.50
2017-12-14T07:30:37.842Z,78.40
2017-12-14T07:35:43.939Z,78.10
2017-12-14T07:40:49.639Z,77.80
2017-12-14T07:46:07.392Z,77.80
2017-12-14T07:51:14.247Z,78.20
2017-12-14T07:56:21.092Z,77.60
2017-12-14T08:01:31.622Z,77.20
2017-12-14T08:06:37.477Z,77.30
2017-12-14T08:11:41.936Z,77.00
2017-12-14T08:16:51.094Z,76.50
2017-12-14T08:22:11.011Z,76.40
2017-12-14T08:27:15.657Z,76.30
2017-12-14T08:32:22.151Z,75.60
2017-12-14T08:37:30.794Z,76.00
2017-12-14T08:42:35.195Z,75.20
2017-12-14T08:47:40.117Z,74.70
2017-12-14T08:52:44.448Z,74.30
2017-12-14T08:57:47.642Z,74.30
2017-12-14T09:02:54.625Z,73.80
2017-12-14T09:07:57.647Z,73.30
2017-12-14T09:13:01.591Z,72.60
2017-12-14T09:18:06.815Z,72.90
2017-12-14T09:23:10.905Z,72.40
2017-12-14T09:28:14.270Z,72.30
2017-12-14T09:33:19.437Z,72.40
2017-12-14T09:38:26.333Z,72.20
2017-12-14T09:43:32.498Z,71.90
2017-12-14T09:48:36.454Z,71.30
2017-12-14T09:53:39.451Z,70.40
2017-12-14T09:58:43.065Z,70.50
2017-12-14T10:03:50.332Z,70.20
2017-12-14T10:08:55.643Z,69.60
2017-12-14T10:13:59.517Z,70.00
2017-12-14T10:19:06.694Z,70.20
2017-12-14T10:24:10.337Z,70.00
2017-12-14T10:29:15.550Z,70.00
2017-12-14T10:39:27.074Z,70.40
2017-12-14T10:44:31.239Z,69.70
2017-12-14T10:49:37.428Z,69.60
2017-12-14T10:59:51.370Z,69.70
2017-12-14T11:04:59.348Z,68.90
2017-12-14T11:10:04.509Z,68.70
2017-12-14T11:15:08.538Z,69.60
2017-12-14T11:20:12.467Z,69.40
2017-12-14T11:25:17.708Z,69.00
2017-12-14T11:30:23.156Z,69.00
2017-12-14T11:35:27.526Z,68.80
2017-12-14T11:40:30.546Z,69.20
2017-12-14T11:45:34.714Z,69.20
2017-12-14T11:50:40.744Z,68.90
2017-12-14T11:55:44.677Z,69.90
2017-12-14T12:00:48.456Z,69.80
2017-12-14T12:05:52.930Z,69.50
2017-12-14T12:10:55.987Z,69.80
2017-12-14T12:16:00.598Z,70.50
2017-12-14T12:21:05.801Z,69.80
2017-12-14T12:26:11.094Z,68.30
2017-12-14T12:31:15.559Z,67.80
2017-12-14T12:36:22.953Z,67.60
2017-12-14T12:46:33.192Z,67.70
2017-12-14T12:51:36.544Z,66.40
2017-12-14T12:56:39.970Z,66.20
2017-12-14T13:01:42.982Z,66.40
2017-12-14T13:06:45.980Z,66.30
2017-12-14T13:11:49.909Z,66.00
2017-12-14T13:16:54.210Z,65.90
2017-12-14T13:21:57.703Z,66.40
2017-12-14T13:27:00.969Z,65.70
2017-12-14T13:32:04.672Z,65.60
2017-12-14T13:37:08.398Z,65.60
2017-12-14T13:42:13.049Z,65.90
2017-12-14T13:47:16.816Z,65.80
2017-12-14T13:52:22.136Z,65.60
2017-12-14T14:02:34.670Z,65.30
2017-12-14T14:07:39.612Z,65.00
2017-12-14T14:12:43.183Z,65.00
2017-12-14T14:17:50.100Z,65.00
2017-12-14T14:22:55.168Z,65.00
2017-12-14T14:27:59.566Z,65.30
2017-12-14T14:38:10.247Z,65.10
2017-12-14T14:43:14.568Z,65.50
2017-12-14T14:48:19.647Z,65.80
2017-12-14T14:53:23.049Z,65.80
2017-12-14T14:58:26.689Z,65.30
2017-12-14T15:03:30.276Z,65.60
2017-12-14T15:08:34.561Z,66.20
2017-12-14T15:13:37.961Z,66.20
2017-12-14T15:18:41.453Z,65.80
2017-12-14T15:23:44.829Z,66.40
2017-12-14T15:28:48.620Z,66.40
2017-12-14T15:33:51.382Z,66.30
2017-12-14T15:38:55.510Z,67.00
2017-12-14T15:43:58.504Z,66.60
2017-12-14T15:49:01.457Z,66.80
2017-12-14T15:54:05.686Z,66.90
2017-12-14T15:59:09.082Z,66.90
2017-12-14T16:04:12.950Z,66.80
2017-12-14T16:09:18.345Z,67.70
2017-12-14T16:14:21.716Z,67.60
2017-12-14T16:19:25.080Z,67.80
2017-12-14T16:24:27.618Z,67.80
2017-12-14T16:29:30.151Z,68.20
2017-12-14T16:34:32.681Z,68.50
2017-12-14T16:39:35.267Z,68.70
2017-12-14T16:44:37.809Z,69.00
2017-12-14T16:49:40.345Z,69.40
2017-12-14T16:54:42.863Z,69.00
2017-12-14T16:59:46.751Z,70.10
2017-12-14T17:04:50.331Z,69.50
2017-12-14T17:09:53.489Z,69.50
2017-12-14T17:14:56.811Z,69.80
2017-12-14T17:19:59.762Z,70.00
2017-12-14T17:25:02.536Z,70.20
2017-12-14T17:30:05.079Z,70.30
2017-12-14T17:35:07.607Z,70.40
2017-12-14T17:40:10.153Z,70.60
2017-12-14T17:45:12.674Z,70.70
2017-12-14T17:50:15.196Z,70.90
2017-12-14T17:55:17.734Z,71.30
2017-12-14T18:00:20.275Z,71.50
2017-12-14T18:05:22.805Z,71.70
2017-12-14T18:10:25.338Z,71.60
2017-12-14T18:15:28.656Z,72.10
2017-12-14T18:20:31.199Z,72.10
2017-12-14T18:25:33.730Z,72.30
2017-12-14T18:30:36.275Z,72.10
2017-12-14T18:35:38.819Z,72.20
2017-12-14T18:40:41.362Z,72.40
2017-12-14T18:45:44.246Z,72.30
2017-12-14T18:50:47.090Z,72.50
2017-12-14T18:55:50.047Z,72.40
2017-12-14T19:00:53.075Z,72.60
2017-12-14T19:05:57.168Z,73.10
2017-12-14T19:11:00.089Z,73.00
2017-12-14T19:16:02.999Z,73.00
2017-12-14T19:21:07.330Z,73.40
2017-12-14T19:26:11.602Z,73.40
2017-12-14T19:31:14.887Z,73.20
2017-12-14T19:36:18.439Z,73.40
2017-12-14T19:41:21.765Z,73.60
2017-12-14T19:46:26.053Z,73.80
2017-12-14T19:51:30.514Z,73.80
2017-12-14T19:56:35.007Z,74.20
2017-12-14T20:01:39.466Z,74.00
2017-12-14T20:06:44.050Z,73.90
2017-12-14T20:11:48.509Z,73.90
2017-12-14T20:16:52.108Z,74.20
2017-12-14T20:21:55.675Z,74.00
2017-12-14T20:27:00.041Z,73.90
2017-12-14T20:32:03.532Z,74.00
2017-12-14T20:37:07.976Z,74.00
2017-12-14T20:42:11.932Z,74.10
2017-12-14T20:47:15.376Z,74.00
2017-12-14T20:52:18.936Z,74.10
2017-12-14T20:57:23.593Z,74.20
2017-12-14T21:02:27.989Z,74.10
2017-12-14T21:07:31.088Z,74.20
2017-12-14T21:12:34.713Z,74.20
2017-12-14T21:22:45.406Z,74.30
2017-12-14T21:27:47.947Z,74.50
2017-12-14T21:32:50.491Z,74.50
2017-12-14T21:37:53.031Z,74.60
2017-12-14T21:42:55.582Z,74.70
2017-12-14T21:47:58.119Z,74.70
2017-12-14T21:53:00.648Z,74.70
2017-12-14T21:58:03.959Z,74.80
2017-12-14T22:03:06.511Z,74.80
2017-12-14T22:08:09.820Z,75.40
2017-12-14T22:18:20.171Z,75.30
2017-12-14T22:23:22.712Z,75.30
2017-12-14T22:28:25.248Z,75.60
2017-12-14T22:33:27.833Z,75.70
2017-12-14T22:38:30.367Z,75.50
2017-12-14T22:43:32.882Z,75.70
2017-12-14T22:48:35.411Z,75.80
2017-12-14T22:53:37.927Z,76.00
2017-12-14T22:58:40.463Z,76.10
2017-12-14T23:03:43.002Z,76.10
2017-12-14T23:08:46.310Z,76.60
2017-12-14T23:13:49.622Z,76.60
2017-12-14T23:18:52.923Z,76.80
2017-12-14T23:23:55.475Z,76.80
2017-12-14T23:28:58.766Z,76.80
2017-12-14T23:34:01.312Z,76.80
2017-12-14T23:39:03.855Z,77.30
2017-12-14T23:44:06.426Z,77.20
2017-12-14T23:49:08.967Z,77.30
2017-12-14T23:54:11.494Z,77.40
2017-12-14T23:59:14.028Z,77.60
